Time;durP1;ratioP1;P1;durP2;ratioP2;P2;SDS_P1;SDS_P2;PMS_P1;PMS_P2;Temp;Humidity;BMP_temperature;BMP_pressure;BME280_temperature;BME280_humidity;BME280_pressure;Samples;Min_cycle;Max_cycle;Signal;HPM_P1;HPM_P2
2022/06/03 00:01:22;;;;;;;3.65;0.77;;;21.30;61.00;;;;;;4974680;28;20031;-68
2022/06/03 00:04:00;;;;;;;3.20;0.95;;;21.30;61.00;;;;;;4972407;28;20505;-67
2022/06/03 00:06:49;;;;;;;1.17;0.88;;;21.30;61.10;;;;;;4971074;28;20062;-69
2022/06/03 00:09:27;;;;;;;2.05;0.68;;;21.40;61.00;;;;;;4969734;28;20098;-68
2022/06/03 00:12:14;;;;;;;1.63;0.73;;;21.40;61.00;;;;;;4972742;28;20026;-68
2022/06/03 00:15:14;;;;;;;0.95;0.70;;;21.40;61.00;;;;;;4970569;28;20027;-68
2022/06/03 00:17:39;;;;;;;2.17;0.80;;;21.40;61.10;;;;;;4972815;28;20034;-68
2022/06/03 00:20:43;;;;;;;1.95;0.98;;;21.40;61.10;;;;;;4972861;28;20081;-68
2022/06/03 00:23:39;;;;;;;1.35;0.70;;;21.40;61.10;;;;;;4972435;28;20031;-68
2022/06/03 00:26:29;;;;;;;3.88;0.70;;;21.30;61.10;;;;;;4972981;28;20596;-68
2022/06/03 00:29:10;;;;;;;2.35;0.93;;;21.30;61.20;;;;;;4973740;28;20402;-68
2022/06/03 00:32:08;;;;;;;2.75;1.00;;;21.30;61.20;;;;;;4972273;28;20113;-68
2022/06/03 00:34:55;;;;;;;2.13;1.10;;;21.30;61.30;;;;;;4973062;28;20019;-68
2022/06/03 00:37:43;;;;;;;1.08;0.65;;;21.30;61.30;;;;;;4958405;28;20026;-68
2022/06/03 00:40:18;;;;;;;2.55;0.82;;;21.30;61.30;;;;;;4974080;28;20030;-68
2022/06/03 00:42:57;;;;;;;2.65;0.98;;;21.30;61.40;;;;;;4973913;28;20577;-68
2022/06/03 00:45:59;;;;;;;2.90;0.93;;;21.40;61.50;;;;;;4972711;28;20022;-67
2022/06/03 00:48:48;;;;;;;1.45;0.80;;;21.30;61.40;;;;;;4972724;28;20158;-67
2022/06/03 00:51:28;;;;;;;1.98;0.80;;;21.30;61.40;;;;;;4972832;28;20029;-67
2022/06/03 00:54:15;;;;;;;7.07;1.08;;;21.30;61.40;;;;;;4971936;28;20049;-68
2022/06/03 00:56:47;;;;;;;3.10;0.93;;;21.40;61.50;;;;;;4973900;28;20093;-68
2022/06/03 00:59:30;;;;;;;2.83;0.90;;;21.30;61.50;;;;;;4973955;28;20027;-68
2022/06/03 01:02:17;;;;;;;3.97;0.90;;;21.30;61.50;;;;;;4972775;28;20043;-68
2022/06/03 01:05:01;;;;;;;3.60;0.80;;;21.30;61.60;;;;;;4971489;28;20046;-68
2022/06/03 01:07:58;;;;;;;3.13;1.15;;;21.30;61.80;;;;;;4971418;28;20425;-68
2022/06/03 01:10:49;;;;;;;3.03;0.80;;;21.30;61.70;;;;;;4955258;28;20027;-68
2022/06/03 01:13:27;;;;;;;5.80;1.23;;;21.40;61.70;;;;;;4958115;28;20019;-68
2022/06/03 01:15:54;;;;;;;2.28;0.95;;;21.30;61.70;;;;;;4971345;28;20043;-67
2022/06/03 01:18:43;;;;;;;5.00;1.05;;;21.30;61.70;;;;;;4955184;28;20030;-68
2022/06/03 01:21:18;;;;;;;8.88;1.30;;;21.30;61.70;;;;;;4970838;28;20043;-68
2022/06/03 01:24:08;;;;;;;5.10;1.00;;;21.30;61.70;;;;;;4971474;28;20023;-68
2022/06/03 01:26:56;;;;;;;4.78;1.05;;;21.30;61.70;;;;;;4955300;28;20065;-68
2022/06/03 01:29:30;;;;;;;3.42;1.00;;;21.30;61.80;;;;;;4956872;28;20035;-68
2022/06/03 01:32:25;;;;;;;2.30;0.90;;;21.30;61.80;;;;;;4955658;28;20127;-68
2022/06/03 01:35:11;;;;;;;1.95;0.90;;;21.30;61.80;;;;;;4956556;28;20054;-68
2022/06/03 01:38:13;;;;;;;3.33;1.13;;;21.30;61.90;;;;;;4964361;28;20485;-68
2022/06/03 01:40:50;;;;;;;1.45;0.90;;;21.30;61.90;;;;;;4971340;28;20038;-68
2022/06/03 01:43:30;;;;;;;2.55;0.95;;;21.30;61.90;;;;;;4973353;28;20053;-68
2022/06/03 01:46:28;;;;;;;2.60;1.00;;;21.30;62.00;;;;;;4973147;28;20043;-68
2022/06/03 01:48:57;;;;;;;1.95;0.70;;;21.30;62.00;;;;;;4973012;28;20039;-68
2022/06/03 01:51:34;;;;;;;1.05;0.75;;;21.40;62.10;;;;;;4971093;28;20082;-68
2022/06/03 01:54:38;;;;;;;2.75;0.98;;;21.30;62.10;;;;;;4973394;28;20023;-67
2022/06/03 01:57:12;;;;;;;2.75;1.00;;;21.40;62.10;;;;;;4973178;28;20030;-68
2022/06/03 01:59:50;;;;;;;9.45;1.10;;;21.30;62.10;;;;;;4973121;28;20474;-68
2022/06/03 02:02:43;;;;;;;5.10;0.90;;;21.30;62.10;;;;;;4973184;28;20489;-68
2022/06/03 02:05:27;;;;;;;4.88;1.30;;;21.30;62.10;;;;;;4974450;28;20022;-68
2022/06/03 02:08:15;;;;;;;2.08;0.90;;;21.30;62.10;;;;;;4975703;28;20474;-68
2022/06/03 02:11:08;;;;;;;2.92;0.93;;;21.30;62.00;;;;;;4976713;28;20023;-68
2022/06/03 02:13:44;;;;;;;;;;;21.30;62.10;;;;;;4975208;28;20027;-68
2022/06/03 02:16:34;;;;;;;3.20;0.73;;;21.30;62.20;;;;;;4971982;28;19964;-68
2022/06/03 02:19:37;;;;;;;3.67;1.00;;;21.30;62.20;;;;;;4971198;28;20023;-68
2022/06/03 02:22:41;;;;;;;2.70;0.95;;;21.30;62.10;;;;;;4972995;28;20026;-68
2022/06/03 02:25:36;;;;;;;1.95;0.98;;;21.30;62.20;;;;;;4973198;28;20150;-68
2022/06/03 02:28:04;;;;;;;4.63;1.77;;;21.30;62.20;;;;;;4971691;28;20046;-68
2022/06/03 02:30:42;;;;;;;1.80;0.90;;;21.40;62.30;;;;;;4974998;28;20038;-68
2022/06/03 02:33:20;;;;;;;3.47;1.08;;;21.40;62.20;;;;;;4975065;28;20066;-68
2022/06/03 02:35:58;;;;;;;2.55;0.88;;;21.40;62.20;;;;;;4976323;28;20154;-68
2022/06/03 02:38:32;;;;;;;2.05;1.13;;;21.40;62.10;;;;;;4975040;28;20030;-68
2022/06/03 02:41:17;;;;;;;5.03;0.95;;;21.40;62.10;;;;;;4975025;28;20029;-68
2022/06/03 02:44:08;;;;;;;4.03;1.27;;;21.30;62.20;;;;;;4976434;28;20023;-68
2022/06/03 02:47:21;;;;;;;1.80;0.98;;;21.40;62.20;;;;;;4975935;28;20051;-67
2022/06/03 02:49:58;;;;;;;2.83;1.00;;;21.40;62.20;;;;;;4975131;28;20027;-68
2022/06/03 02:52:48;;;;;;;2.60;0.70;;;21.30;62.10;;;;;;4975886;28;20038;-67
2022/06/03 02:56:18;;;;;;;1.95;0.80;;;21.30;62.20;;;;;;4976011;28;20027;-68
2022/06/03 02:59:06;;;;;;;3.00;0.90;;;21.30;62.20;;;;;;4878944;29;20168;-68
2022/06/03 03:02:01;;;;;;;2.97;1.35;;;21.30;62.20;;;;;;4878664;29;20553;-68
2022/06/03 03:05:07;;;;;;;4.68;1.33;;;21.30;62.20;;;;;;4878689;29;20037;-68
2022/06/03 03:08:03;;;;;;;4.65;1.20;;;21.30;62.20;;;;;;4853582;29;20052;-68
2022/06/03 03:10:43;;;;;;;3.20;0.80;;;21.30;62.20;;;;;;4859890;29;20034;-68
2022/06/03 03:13:34;;;;;;;3.08;0.90;;;21.30;62.30;;;;;;4860120;29;20140;-68
2022/06/03 03:16:08;;;;;;;2.08;0.93;;;21.30;62.30;;;;;;4874423;29;20053;-68
2022/06/03 03:18:43;;;;;;;5.75;1.23;;;21.30;62.30;;;;;;4878229;29;20048;-68
2022/06/03 03:21:18;;;;;;;2.90;1.35;;;21.30;62.30;;;;;;4878472;29;20036;-68
2022/06/03 03:23:44;;;;;;;2.55;0.70;;;21.30;62.30;;;;;;4862104;29;20072;-68
2022/06/03 03:26:34;;;;;;;2.33;0.90;;;21.30;62.30;;;;;;4859804;29;20481;-68
2022/06/03 03:29:19;;;;;;;1.98;0.88;;;21.30;62.30;;;;;;4851047;29;20057;-68
2022/06/03 03:31:59;;;;;;;2.15;0.93;;;21.30;62.30;;;;;;4840901;29;20516;-68
2022/06/03 03:34:46;;;;;;;2.28;0.90;;;21.30;62.30;;;;;;4843234;29;20041;-68
2022/06/03 03:37:17;;;;;;;2.90;1.20;;;21.30;62.50;;;;;;4915728;29;20067;-68
2022/06/03 03:40:05;;;;;;;2.92;0.80;;;21.30;62.50;;;;;;4915423;29;20376;-68
2022/06/03 03:43:11;;;;;;;1.90;0.90;;;21.30;62.40;;;;;;4901339;29;20028;-68
2022/06/03 03:45:48;;;;;;;1.10;0.70;;;21.30;62.60;;;;;;4915160;29;20091;-68
2022/06/03 03:48:34;;;;;;;3.80;0.80;;;21.30;62.60;;;;;;4899764;29;20036;-68
2022/06/03 03:51:02;;;;;;;0.90;0.77;;;21.30;62.70;;;;;;4915642;29;20077;-68
2022/06/03 03:53:55;;;;;;;1.15;0.70;;;21.30;62.70;;;;;;4915393;29;20074;-68
2022/06/03 03:56:29;;;;;;;1.70;0.95;;;21.30;62.70;;;;;;4915429;29;20508;-68
2022/06/03 03:59:23;;;;;;;3.85;1.13;;;21.30;62.80;;;;;;4915254;29;20028;-68
2022/06/03 04:02:10;;;;;;;3.72;1.10;;;21.30;62.90;;;;;;4884990;29;20127;-68
2022/06/03 04:05:02;;;;;;;4.63;1.00;;;21.30;62.90;;;;;;4915226;29;20060;-68
2022/06/03 04:07:59;;;;;;;1.55;0.75;;;21.30;62.90;;;;;;4900661;29;20408;-68
2022/06/03 04:10:53;;;;;;;2.30;0.90;;;21.30;62.90;;;;;;4915113;29;20028;-68
2022/06/03 04:13:37;;;;;;;1.02;0.77;;;21.20;62.90;;;;;;4915319;29;20066;-68
2022/06/03 04:16:43;;;;;;;3.60;0.85;;;21.20;62.90;;;;;;4930707;29;20031;-68
2022/06/03 04:19:27;;;;;;;2.15;1.17;;;21.20;62.90;;;;;;4950683;28;20517;-68
2022/06/03 04:22:13;;;;;;;2.00;1.00;;;21.20;63.00;;;;;;4974190;28;20485;-68
2022/06/03 04:24:54;;;;;;;2.33;0.70;;;21.20;63.00;;;;;;4974379;28;20027;-68
2022/06/03 04:27:48;;;;;;;1.98;0.80;;;21.20;63.10;;;;;;4974131;28;20030;-68
2022/06/03 04:30:28;;;;;;;3.15;1.08;;;21.30;64.20;;;;;;4972972;28;20050;-68
2022/06/03 04:33:36;;;;;;;1.27;0.88;;;21.20;63.10;;;;;;4973138;28;20026;-68
2022/06/03 04:36:23;;;;;;;3.08;1.00;;;21.20;63.10;;;;;;4972034;28;20047;-68
2022/06/03 04:39:06;;;;;;;2.65;0.90;;;21.20;63.20;;;;;;4971942;28;20031;-68
2022/06/03 04:41:40;;;;;;;1.20;0.80;;;21.20;63.20;;;;;;4971880;28;20046;-68
2022/06/03 04:44:19;;;;;;;2.15;0.90;;;21.20;63.30;;;;;;4971777;28;20026;-68
2022/06/03 04:47:12;;;;;;;1.52;0.80;;;21.20;63.50;;;;;;4939369;28;20528;-68
2022/06/03 04:50:11;;;;;;;5.70;1.30;;;21.20;63.60;;;;;;4955779;28;20121;-68
2022/06/03 04:53:01;;;;;;;1.95;0.80;;;21.20;63.70;;;;;;4971709;28;20089;-67
2022/06/03 04:55:48;;;;;;;1.77;0.95;;;21.20;63.70;;;;;;4972108;28;20113;-68
2022/06/03 04:58:42;;;;;;;4.50;1.00;;;21.20;63.70;;;;;;4971628;28;20031;-68
2022/06/03 05:01:31;;;;;;;1.63;0.98;;;21.20;63.70;;;;;;4955530;28;20035;-68
2022/06/03 05:05:06;;;;;;;3.53;0.90;;;21.20;63.80;;;;;;4971916;28;20034;-68
2022/06/03 05:07:37;;;;;;;3.78;1.08;;;21.20;63.70;;;;;;4940926;29;20035;-68
2022/06/03 05:10:40;;;;;;;2.28;0.85;;;21.20;63.80;;;;;;4952389;29;20077;-68
2022/06/03 05:13:43;;;;;;;1.52;0.80;;;21.20;63.80;;;;;;4952166;29;20043;-68
2022/06/03 05:16:08;;;;;;;1.90;0.70;;;21.20;63.80;;;;;;4952050;28;20046;-68
2022/06/03 05:18:53;;;;;;;2.80;0.98;;;21.20;63.90;;;;;;4952372;29;20034;-68
2022/06/03 05:21:37;;;;;;;2.90;1.00;;;21.20;63.90;;;;;;4952344;29;20035;-68
2022/06/03 05:24:13;;;;;;;1.27;0.80;;;21.20;63.90;;;;;;4952178;29;20031;-68
2022/06/03 05:26:56;;;;;;;1.65;0.90;;;21.20;63.90;;;;;;4952360;29;20030;-68
2022/06/03 05:29:36;;;;;;;2.33;0.80;;;21.20;64.00;;;;;;4936139;29;20034;-68
2022/06/03 05:32:35;;;;;;;2.58;0.90;;;21.20;64.00;;;;;;4936238;29;20043;-68
2022/06/03 05:35:19;;;;;;;1.10;0.85;;;21.20;64.00;;;;;;4952100;29;20046;-68
2022/06/03 05:37:50;;;;;;;1.05;0.80;;;21.20;64.00;;;;;;4952028;29;20594;-68
2022/06/03 05:40:35;;;;;;;3.20;0.90;;;21.20;64.10;;;;;;4953835;28;20027;-68
2022/06/03 05:43:19;;;;;;;1.25;0.90;;;21.20;64.10;;;;;;4959978;28;20049;-68
2022/06/03 05:46:25;;;;;;;1.00;0.88;;;21.20;64.00;;;;;;4960461;28;20504;-68
2022/06/03 05:49:00;;;;;;;3.50;1.17;;;21.20;64.10;;;;;;4974043;28;20046;-68
2022/06/03 05:51:43;;;;;;;3.88;1.00;;;21.20;64.20;;;;;;4977392;28;20026;-68
2022/06/03 05:54:14;;;;;;;3.35;0.90;;;21.20;64.40;;;;;;4976074;28;20026;-68
2022/06/03 05:57:07;;;;;;;1.20;0.60;;;21.20;64.40;;;;;;4975822;28;20038;-68
2022/06/03 05:59:54;;;;;;;2.30;0.90;;;21.20;64.50;;;;;;4977077;28;20034;-68
2022/06/03 06:02:32;;;;;;;1.65;0.90;;;21.20;64.50;;;;;;4975734;28;20078;-68
2022/06/03 06:05:22;;;;;;;2.03;0.63;;;21.20;64.60;;;;;;4975723;28;20023;-68
2022/06/03 06:08:15;;;;;;;5.50;2.50;;;21.20;64.70;;;;;;4976901;28;20057;-68
2022/06/03 06:11:03;;;;;;;5.10;2.92;;;21.20;63.50;;;;;;4976659;28;20027;-68
2022/06/03 06:13:41;;;;;;;8.88;3.40;;;21.10;62.70;;;;;;4975786;28;20019;-68
2022/06/03 06:16:17;;;;;;;9.48;4.07;;;21.00;61.50;;;;;;4976526;28;20485;-68
2022/06/03 06:18:53;;;;;;;15.02;4.35;;;20.90;61.20;;;;;;4975550;28;20019;-68
2022/06/03 06:21:55;;;;;;;8.35;3.95;;;20.90;61.10;;;;;;4975057;28;20533;-67
2022/06/03 06:24:29;;;;;;;16.92;4.70;;;20.90;60.80;;;;;;4957147;29;20019;-68
2022/06/03 06:27:21;;;;;;;9.65;4.20;;;20.80;60.50;;;;;;4971623;28;20387;-68
2022/06/03 06:30:09;;;;;;;9.70;4.47;;;20.70;60.60;;;;;;4957123;29;20020;-68
2022/06/03 06:33:00;;;;;;;12.10;4.50;;;20.70;60.30;;;;;;4974592;28;20030;-68
2022/06/03 06:35:59;;;;;;;11.05;4.63;;;20.70;60.50;;;;;;4956730;28;20114;-68
2022/06/03 06:38:37;;;;;;;15.75;4.97;;;20.70;60.50;;;;;;4969234;28;20047;-68
2022/06/03 06:41:37;;;;;;;10.88;4.82;;;20.70;60.50;;;;;;4975397;28;20413;-67
2022/06/03 06:44:09;;;;;;;12.38;4.78;;;20.60;60.50;;;;;;4974538;28;20031;-68
2022/06/03 06:46:59;;;;;;;8.32;4.53;;;20.60;60.60;;;;;;4974457;28;20126;-68
2022/06/03 06:49:32;;;;;;;14.27;4.95;;;20.60;60.60;;;;;;4975584;28;20030;-68
2022/06/03 06:52:10;;;;;;;8.13;4.43;;;20.50;60.80;;;;;;4974114;28;20038;-68
2022/06/03 06:54:51;;;;;;;9.73;4.20;;;20.50;60.90;;;;;;4975262;28;20035;-68
2022/06/03 06:57:54;;;;;;;11.10;4.60;;;20.50;61.10;;;;;;4975853;28;20157;-68
2022/06/03 07:00:24;;;;;;;10.77;4.43;;;20.50;61.20;;;;;;4957814;28;20033;-68
2022/06/03 07:03:00;;;;;;;9.32;3.90;;;20.50;61.30;;;;;;4941583;28;20692;-67
2022/06/03 07:05:35;;;;;;;11.13;4.28;;;20.50;61.20;;;;;;4956604;28;20039;-68
2022/06/03 07:08:21;;;;;;;8.93;3.70;;;20.40;61.20;;;;;;4956862;28;20030;-68
2022/06/03 07:11:03;;;;;;;9.25;3.88;;;20.50;61.30;;;;;;4942899;28;20026;-68
2022/06/03 07:13:42;;;;;;;7.72;3.80;;;20.50;61.40;;;;;;4972876;28;20031;-68
2022/06/03 07:22:32;;;;;;;10.85;4.05;;;20.40;61.60;;;;;;4959099;28;20126;-68
2022/06/03 07:25:14;;;;;;;8.00;4.05;;;20.40;61.80;;;;;;4914846;29;20384;-68
2022/06/03 07:27:42;;;;;;;10.80;4.45;;;20.40;61.70;;;;;;4914841;29;20609;-68
2022/06/03 07:30:13;;;;;;;9.38;4.00;;;20.40;61.60;;;;;;4914971;29;20032;-68
2022/06/03 07:32:42;;;;;;;10.65;4.47;;;20.40;61.60;;;;;;4914987;29;20028;-68
2022/06/03 07:35:13;;;;;;;9.55;4.75;;;20.40;61.60;;;;;;4899171;29;20427;-67
2022/06/03 07:37:55;;;;;;;11.10;4.45;;;20.40;61.60;;;;;;4895434;29;20041;-68
2022/06/03 07:40:29;;;;;;;14.10;4.87;;;20.40;61.70;;;;;;4896751;29;20036;-67
2022/06/03 07:43:16;;;;;;;21.55;5.05;;;20.40;61.70;;;;;;4896444;29;20289;-68
2022/06/03 07:45:48;;;;;;;23.55;5.75;;;20.50;61.80;;;;;;4896415;29;20032;-68
2022/06/03 07:48:17;;;;;;;16.45;5.15;;;20.50;62.00;;;;;;4896466;29;20408;-68
2022/06/03 07:50:49;;;;;;;16.50;5.43;;;20.40;63.30;;;;;;4896664;29;20036;-68
2022/06/03 07:53:22;;;;;;;21.33;5.32;;;20.40;62.40;;;;;;4896386;29;20152;-68
2022/06/03 07:55:52;;;;;;;19.42;5.00;;;20.40;62.50;;;;;;4896388;29;20048;-68
2022/06/03 07:58:18;;;;;;;16.40;5.03;;;20.40;62.60;;;;;;4896513;29;20033;-67
2022/06/03 08:00:45;;;;;;;15.13;5.10;;;20.40;62.50;;;;;;4900431;29;20036;-68
2022/06/03 08:03:16;;;;;;;15.75;5.13;;;20.40;62.50;;;;;;4954973;28;20074;-68
2022/06/03 08:05:47;;;;;;;14.13;5.78;;;20.40;62.70;;;;;;4938388;29;20482;-68
2022/06/03 08:11:00;;;;;;;15.88;4.97;;;20.40;62.80;;;;;;4940772;29;20030;-68
2022/06/03 08:13:50;;;;;;;14.52;4.82;;;20.40;62.70;;;;;;4938361;29;20490;-68
2022/06/03 08:16:29;;;;;;;23.75;5.10;;;20.40;62.60;;;;;;4971963;28;20053;-67
2022/06/03 08:19:03;;;;;;;11.63;4.45;;;20.40;62.50;;;;;;4973166;28;20114;-68
2022/06/03 08:21:35;;;;;;;15.30;4.70;;;20.40;62.50;;;;;;4972978;28;20082;-68
2022/06/03 08:24:01;;;;;;;14.23;4.63;;;20.40;62.60;;;;;;4954242;28;20478;-68
2022/06/03 08:26:27;;;;;;;12.75;4.40;;;20.40;62.50;;;;;;4953811;29;20122;-68
2022/06/03 08:29:05;;;;;;;12.23;4.32;;;20.40;62.40;;;;;;4953645;29;20394;-67
2022/06/03 08:31:31;;;;;;;15.25;4.13;;;20.40;62.40;;;;;;4953804;29;20065;-68
2022/06/03 08:34:00;;;;;;;15.40;3.97;;;20.40;62.40;;;;;;4953763;29;20023;-67
2022/06/03 08:36:29;;;;;;;11.63;3.50;;;20.40;62.40;;;;;;4953496;29;20118;-67
2022/06/03 08:39:06;;;;;;;8.95;4.00;;;20.50;62.30;;;;;;4954760;29;20402;-68
2022/06/03 08:41:59;;;;;;;11.18;3.40;;;20.50;62.20;;;;;;4953403;29;20491;-67
2022/06/03 08:44:58;;;;;;;9.40;4.00;;;20.50;62.20;;;;;;4954585;29;20110;-68
2022/06/03 08:47:37;;;;;;;10.20;3.53;;;20.50;62.20;;;;;;4953358;29;20055;-68
2022/06/03 08:50:13;;;;;;;10.40;3.50;;;20.40;62.00;;;;;;4953318;29;20493;-67
2022/06/03 08:52:51;;;;;;;11.43;3.53;;;20.40;62.00;;;;;;4953691;29;20023;-67
2022/06/03 08:55:28;;;;;;;8.70;3.95;;;20.40;62.00;;;;;;4954629;29;20034;-68
2022/06/03 08:58:03;;;;;;;8.25;3.40;;;20.40;62.10;;;;;;4954541;29;20549;-69
2022/06/03 09:01:02;;;;;;;7.40;3.78;;;20.50;62.20;;;;;;4953363;29;20023;-71
2022/06/03 09:03:29;;;;;;;11.48;3.80;;;20.40;62.00;;;;;;4952460;29;20043;-72
2022/06/03 09:05:58;;;;;;;8.15;3.65;;;20.50;62.00;;;;;;4951917;29;20061;-71
2022/06/03 09:08:34;;;;;;;9.82;3.83;;;20.50;62.00;;;;;;4952123;29;20023;-70
2022/06/03 09:11:10;;;;;;;9.32;3.70;;;20.50;61.90;;;;;;4952240;29;20183;-71
2022/06/03 09:13:36;;;;;;;7.80;3.22;;;20.50;61.90;;;;;;4950743;28;20040;-72
2022/06/03 09:16:03;;;;;;;6.00;3.92;;;20.50;63.00;;;;;;4967506;28;20501;-69
2022/06/03 09:18:40;;;;;;;8.93;3.83;;;20.50;62.00;;;;;;4955543;28;20062;-71
2022/06/03 09:21:17;;;;;;;8.75;4.28;;;20.50;61.90;;;;;;4955402;28;20113;-72
2022/06/03 09:23:48;;;;;;;8.05;3.78;;;20.50;61.90;;;;;;4963175;28;20023;-71
2022/06/03 09:26:20;;;;;;;7.57;3.55;;;20.50;62.00;;;;;;4968686;28;20045;-71
2022/06/03 09:28:46;;;;;;;10.52;4.25;;;20.50;62.00;;;;;;4974757;28;20026;-71
2022/06/03 09:31:13;;;;;;;7.80;3.92;;;20.50;62.00;;;;;;4974386;28;20039;-71
2022/06/03 09:33:39;;;;;;;8.30;3.47;;;20.50;62.20;;;;;;4974586;28;20030;-72
2022/06/03 09:36:07;;;;;;;7.13;3.92;;;20.50;62.00;;;;;;4974643;28;20037;-72
2022/06/03 09:39:04;;;;;;;8.68;3.88;;;20.50;62.00;;;;;;4971919;28;20031;-72
2022/06/03 09:41:36;;;;;;;6.97;3.40;;;20.50;61.90;;;;;;4972826;28;20041;-72
2022/06/03 09:44:03;;;;;;;9.05;3.63;;;20.50;61.80;;;;;;4956482;28;20023;-71
2022/06/03 09:46:29;;;;;;;12.30;4.15;;;20.50;61.80;;;;;;4956112;28;20053;-71
2022/06/03 09:48:54;;;;;;;6.13;3.40;;;20.60;61.80;;;;;;4955913;28;20026;-71
2022/06/03 09:54:13;;;;;;;8.07;3.78;;;20.60;61.70;;;;;;4958851;28;20038;-71
2022/06/03 09:56:39;;;;;;;6.57;3.90;;;20.60;61.60;;;;;;4956229;28;20015;-71
2022/06/03 09:59:05;;;;;;;9.15;3.90;;;20.60;61.70;;;;;;4972117;28;20062;-73
2022/06/03 10:01:30;;;;;;;7.53;3.40;;;20.60;61.70;;;;;;4955871;28;20059;-71
2022/06/03 10:04:00;;;;;;;10.35;3.50;;;20.60;61.70;;;;;;4970425;28;20031;-71
2022/06/03 10:14:39;;;;;;;15.38;3.47;;;20.60;61.70;;;;;;4973288;28;20038;-72
2022/06/03 10:17:05;;;;;;;7.82;3.53;;;20.60;61.50;;;;;;4971000;28;20421;-71
2022/06/03 10:19:31;;;;;;;11.98;3.65;;;20.70;61.40;;;;;;4971040;28;20541;-73
2022/06/03 10:21:57;;;;;;;9.90;3.22;;;20.70;60.90;;;;;;4972371;28;20023;-74
2022/06/03 10:24:29;;;;;;;12.35;3.42;;;20.70;61.20;;;;;;4971647;28;20031;-73
2022/06/03 10:26:58;;;;;;;6.65;3.13;;;20.70;60.70;;;;;;4972821;28;20066;-73
2022/06/03 10:29:26;;;;;;;5.95;2.60;;;20.70;61.20;;;;;;4974334;28;20058;-72
2022/06/03 10:31:54;;;;;;;7.47;2.83;;;20.70;60.50;;;;;;4975032;28;20027;-73
2022/06/03 10:34:25;;;;;;;11.05;2.65;;;20.70;60.50;;;;;;4975133;28;20038;-73
2022/06/03 10:36:52;;;;;;;9.13;2.85;;;20.70;60.50;;;;;;4975333;28;20825;-73
2022/06/03 10:39:18;;;;;;;6.32;2.47;;;20.80;60.60;;;;;;4958832;28;20513;-73
2022/06/03 10:41:46;;;;;;;6.57;2.45;;;20.80;60.80;;;;;;4958389;28;20138;-73
2022/06/03 10:44:17;;;;;;;4.65;2.30;;;20.70;60.50;;;;;;4973592;28;20572;-73
2022/06/03 10:46:55;;;;;;;7.40;2.28;;;20.70;60.50;;;;;;4973599;28;20035;-72
2022/06/03 10:49:21;;;;;;;7.22;2.20;;;20.70;60.30;;;;;;4974832;28;20090;-73
2022/06/03 11:02:48;;;;;;;7.97;4.03;;;20.80;59.90;;;;;;4974458;28;20583;-73
2022/06/03 11:05:31;;;;;;;11.55;5.22;;;20.80;60.00;;;;;;4975804;28;20050;-73
2022/06/03 11:08:02;;;;;;;7.88;3.85;;;20.80;60.60;;;;;;4974830;28;20493;-74
2022/06/03 11:10:38;;;;;;;8.23;4.87;;;20.80;59.40;;;;;;4975854;28;20027;-73
2022/06/03 11:13:05;;;;;;;8.05;4.95;;;20.90;60.40;;;;;;4959866;28;20054;-73
2022/06/03 11:15:44;;;;;;;8.68;4.63;;;20.80;60.50;;;;;;4958270;28;20031;-74
2022/06/03 11:18:20;;;;;;;6.97;3.70;;;20.90;60.40;;;;;;4974328;28;20131;-74
2022/06/03 11:20:50;;;;;;;9.57;4.70;;;20.80;59.20;;;;;;4975666;28;20029;-74
2022/06/03 11:23:15;;;;;;;11.35;4.05;;;20.90;59.70;;;;;;4962681;28;20035;-74
2022/06/03 11:25:47;;;;;;;6.95;3.65;;;20.90;59.20;;;;;;4955176;29;20509;-73
2022/06/03 11:28:18;;;;;;;8.90;3.33;;;20.90;58.60;;;;;;4956116;29;20019;-74
2022/06/03 11:30:59;;;;;;;5.57;2.83;;;20.90;58.30;;;;;;4954771;29;20494;-73
2022/06/03 11:33:38;;;;;;;7.63;3.13;;;20.90;57.20;;;;;;4955071;29;20106;-76
2022/06/03 11:36:13;;;;;;;8.43;2.50;;;20.90;56.60;;;;;;4954274;29;20055;-76
2022/06/03 11:38:44;;;;;;;8.50;2.95;;;20.90;56.30;;;;;;4953887;28;20478;-73
2022/06/03 11:41:34;;;;;;;6.22;2.70;;;20.90;57.20;;;;;;4954676;29;20057;-73
2022/06/03 11:44:19;;;;;;;6.95;2.85;;;20.90;56.30;;;;;;4954520;29;20039;-73
2022/06/03 11:46:59;;;;;;;7.75;2.50;;;20.90;56.00;;;;;;4966593;28;20043;-74
2022/06/03 11:49:25;;;;;;;5.10;2.35;;;20.90;56.10;;;;;;4957498;28;20098;-75
2022/06/03 11:51:51;;;;;;;7.35;2.70;;;21.00;57.40;;;;;;4975114;28;20125;-75
2022/06/03 11:54:18;;;;;;;8.52;2.53;;;21.00;56.00;;;;;;4973736;28;20109;-75
2022/06/03 11:56:44;;;;;;;5.85;2.10;;;21.00;56.00;;;;;;4957912;28;20030;-75
2022/06/03 11:59:12;;;;;;;6.82;2.30;;;21.00;57.50;;;;;;4973363;28;20489;-74
2022/06/03 12:01:50;;;;;;;3.00;2.28;;;21.00;56.50;;;;;;4973577;28;20105;-74
2022/06/03 12:04:39;;;;;;;7.50;2.40;;;21.00;56.50;;;;;;4974634;28;20371;-74
2022/06/03 12:07:23;;;;;;;4.72;2.70;;;21.00;56.90;;;;;;4972501;28;20453;-75
2022/06/03 12:09:54;;;;;;;7.35;2.53;;;21.00;57.20;;;;;;4974910;28;20080;-74
2022/06/03 12:15:34;;;;;;;4.55;2.30;;;21.00;57.20;;;;;;4960755;28;20033;-74
2022/06/03 12:18:06;;;;;;;5.95;2.58;;;21.00;57.30;;;;;;4974488;28;20077;-74
2022/06/03 12:20:31;;;;;;;6.03;2.40;;;21.10;57.20;;;;;;4974393;28;20453;-74
2022/06/03 12:23:20;;;;;;;3.80;2.15;;;21.10;57.20;;;;;;4974127;28;20022;-74
2022/06/03 12:25:49;;;;;;;3.60;2.42;;;21.10;57.20;;;;;;4972355;28;20046;-74
2022/06/03 12:28:54;;;;;;;4.28;2.33;;;21.10;57.30;;;;;;4971737;28;20041;-74
2022/06/03 12:31:20;;;;;;;5.90;2.17;;;21.10;57.60;;;;;;4951643;28;20089;-74
2022/06/03 12:33:50;;;;;;;4.20;2.30;;;21.10;57.80;;;;;;4955804;28;20086;-74
2022/06/03 12:36:52;;;;;;;4.10;1.98;;;21.10;57.80;;;;;;4955821;28;20493;-74
2022/06/03 12:39:34;;;;;;;4.07;2.42;;;21.10;57.90;;;;;;4972038;28;20035;-74
2022/06/03 12:42:07;;;;;;;5.18;2.03;;;21.20;58.00;;;;;;4955752;28;20053;-74
2022/06/03 12:44:44;;;;;;;4.82;2.33;;;21.20;58.00;;;;;;4955665;28;20030;-74
2022/06/03 12:47:31;;;;;;;5.70;1.83;;;21.20;58.10;;;;;;4955549;28;20167;-74
2022/06/03 12:50:04;;;;;;;5.15;2.00;;;21.20;58.20;;;;;;4971869;28;20114;-74
2022/06/03 12:52:29;;;;;;;4.07;2.03;;;21.20;58.20;;;;;;4956411;28;20445;-74
2022/06/03 12:55:04;;;;;;;4.55;2.20;;;21.20;58.10;;;;;;4971832;28;20035;-74
2022/06/03 12:57:49;;;;;;;6.22;1.80;;;21.20;58.30;;;;;;4955254;28;20039;-74
2022/06/03 13:00:21;;;;;;;3.53;1.80;;;21.20;58.00;;;;;;4971675;28;20530;-74
2022/06/03 13:03:00;;;;;;;7.00;2.10;;;21.30;58.00;;;;;;4972779;28;20401;-74
2022/06/03 13:05:41;;;;;;;5.07;1.73;;;21.30;58.30;;;;;;4972777;28;20470;-75
2022/06/03 13:08:11;;;;;;;3.05;2.10;;;21.30;58.60;;;;;;4973767;28;20019;-74
2022/06/03 13:11:01;;;;;;;2.92;1.80;;;21.30;58.10;;;;;;4957011;28;20393;-74
2022/06/03 13:13:29;;;;;;;6.75;2.28;;;21.40;58.00;;;;;;4955152;28;20035;-74
2022/06/03 13:16:19;;;;;;;3.25;2.05;;;21.30;57.80;;;;;;4971528;28;20042;-74
2022/06/03 13:18:48;;;;;;;6.38;2.33;;;21.40;57.80;;;;;;4968485;28;20067;-75
2022/06/03 13:21:14;;;;;;;4.75;2.10;;;21.40;57.50;;;;;;4971120;28;20505;-75
2022/06/03 13:24:19;;;;;;;4.53;2.30;;;21.40;57.50;;;;;;4971300;28;20042;-72
2022/06/03 13:26:46;;;;;;;5.85;2.28;;;21.40;57.50;;;;;;4932743;29;20499;-71
2022/06/03 13:29:13;;;;;;;5.53;2.22;;;21.40;57.50;;;;;;4932812;29;20063;-71
2022/06/03 13:32:00;;;;;;;4.70;2.15;;;21.40;57.60;;;;;;4932930;29;20677;-71
2022/06/03 13:34:30;;;;;;;4.35;2.25;;;21.40;57.60;;;;;;4913505;29;20052;-71
2022/06/03 13:37:17;;;;;;;6.82;2.33;;;21.40;57.50;;;;;;4898169;29;20119;-71
2022/06/03 13:39:43;;;;;;;5.97;2.28;;;21.50;57.40;;;;;;4900501;29;20040;-72
2022/06/03 13:45:02;;;;;;;5.50;2.47;;;21.50;57.20;;;;;;4900756;29;20463;-71
2022/06/03 13:47:42;;;;;;;8.45;2.40;;;21.50;57.30;;;;;;4913380;29;20071;-71
2022/06/03 13:50:14;;;;;;;3.72;2.17;;;21.50;57.20;;;;;;4891853;29;20427;-71
2022/06/03 13:52:59;;;;;;;6.13;2.35;;;21.50;57.00;;;;;;4894980;29;20096;-70
2022/06/03 13:55:37;;;;;;;4.13;2.78;;;21.60;57.20;;;;;;4879198;29;20356;-72
2022/06/03 13:58:11;;;;;;;6.00;2.85;;;21.60;57.20;;;;;;4879690;29;20411;-71
2022/06/03 14:00:50;;;;;;;3.13;2.25;;;21.60;57.30;;;;;;4895669;29;20036;-71
2022/06/03 14:03:24;;;;;;;4.00;2.47;;;21.60;57.70;;;;;;4906876;29;20450;-71
2022/06/03 14:06:27;;;;;;;5.45;2.17;;;21.60;57.80;;;;;;4924655;29;20059;-72
2022/06/03 14:08:59;;;;;;;4.57;2.20;;;21.60;57.80;;;;;;4938618;29;20027;-72
2022/06/03 14:11:41;;;;;;;5.03;2.20;;;21.60;57.80;;;;;;4957396;28;20027;-70
2022/06/03 14:14:31;;;;;;;3.63;1.80;;;21.60;57.90;;;;;;4958035;28;20019;-71
2022/06/03 14:17:28;;;;;;;3.33;2.10;;;21.60;58.10;;;;;;4975604;28;20027;-71
2022/06/03 14:20:17;;;;;;;4.38;2.10;;;21.60;58.00;;;;;;4976528;28;20033;-71
2022/06/03 14:22:53;;;;;;;5.82;2.22;;;21.60;58.10;;;;;;4975342;28;20031;-71
2022/06/03 14:25:38;;;;;;;2.72;1.80;;;21.60;58.10;;;;;;4975282;28;20018;-71
2022/06/03 14:28:20;;;;;;;6.65;2.15;;;21.60;58.10;;;;;;4991599;28;20034;-72
2022/06/03 14:31:01;;;;;;;5.13;2.17;;;21.70;58.00;;;;;;4975355;28;20042;-71